Time;durP1;ratioP1;P1;durP2;ratioP2;P2;SDS_P1;SDS_P2;PMS_P1;PMS_P2;Temp;Humidity;BMP_temperature;BMP_pressure;BME280_temperature;BME280_humidity;BME280_pressure;Samples;Min_cycle;Max_cycle;Signal;HPM_P1;HPM_P2
2022/09/26 00:02:41;;;;;;;4.28;4.10;;;12.40;99.90;;;;;;6166544;28;20255;-67
2022/09/26 00:05:45;;;;;;;4.82;4.50;;;12.40;99.90;;;;;;6167066;28;20225;-67
2022/09/26 00:08:51;;;;;;;4.22;3.90;;;12.30;99.90;;;;;;6166388;28;20231;-66
2022/09/26 00:11:55;;;;;;;4.40;4.20;;;12.20;99.90;;;;;;6147545;28;20251;-66
2022/09/26 00:15:00;;;;;;;4.72;4.53;;;12.20;99.90;;;;;;6119116;29;20208;-66
2022/09/26 00:18:06;;;;;;;4.07;3.97;;;12.20;99.90;;;;;;6128000;29;20238;-66
2022/09/26 00:21:13;;;;;;;3.83;3.70;;;12.10;99.90;;;;;;6143029;29;20200;-66
2022/09/26 00:24:17;;;;;;;5.32;3.45;;;12.20;99.90;;;;;;6142171;28;20231;-66
2022/09/26 00:27:21;;;;;;;3.75;3.60;;;12.20;99.90;;;;;;6142322;29;20328;-66
2022/09/26 00:30:26;;;;;;;3.88;3.28;;;12.30;99.90;;;;;;6142185;29;20519;-66
2022/09/26 00:33:32;;;;;;;3.55;3.45;;;12.30;99.90;;;;;;6142050;29;20231;-66
2022/09/26 00:36:37;;;;;;;3.20;3.10;;;12.20;99.90;;;;;;6142649;29;20260;-66
2022/09/26 00:39:41;;;;;;;3.63;3.42;;;12.30;99.90;;;;;;6141864;29;20550;-66
2022/09/26 00:42:46;;;;;;;3.63;3.33;;;12.20;99.90;;;;;;6141921;29;20303;-66
2022/09/26 00:45:50;;;;;;;2.85;2.85;;;12.20;99.90;;;;;;6141291;29;20188;-66
2022/09/26 00:49:06;;;;;;;2.95;2.85;;;12.30;99.90;;;;;;6141870;29;20247;-66
2022/09/26 00:52:15;;;;;;;2.92;2.90;;;12.30;99.90;;;;;;6141920;29;20236;-66
2022/09/26 00:55:23;;;;;;;3.20;3.10;;;12.30;99.90;;;;;;6141754;29;20459;-66
2022/09/26 00:58:32;;;;;;;2.78;2.78;;;12.30;99.90;;;;;;6141366;29;20239;-66
2022/09/26 01:01:36;;;;;;;2.80;2.70;;;12.30;99.90;;;;;;6141978;29;20192;-66
2022/09/26 01:04:43;;;;;;;2.97;2.97;;;12.30;99.90;;;;;;6141468;29;20236;-66
2022/09/26 01:07:48;;;;;;;3.03;2.92;;;12.30;99.90;;;;;;6141105;29;20345;-66
2022/09/26 01:10:52;;;;;;;2.97;2.97;;;12.30;99.90;;;;;;6152763;29;20294;-67
2022/09/26 01:13:57;;;;;;;2.90;2.80;;;12.30;99.90;;;;;;6164786;28;20537;-67
2022/09/26 01:17:02;;;;;;;3.33;3.22;;;12.20;99.90;;;;;;6164888;28;20211;-67
2022/09/26 01:20:33;;;;;;;2.92;2.80;;;12.20;99.90;;;;;;6165129;29;20216;-67
2022/09/26 01:24:23;;;;;;;2.83;2.70;;;12.30;99.90;;;;;;6164652;28;20342;-67
2022/09/26 01:27:47;;;;;;;3.08;3.00;;;12.20;99.90;;;;;;6164454;28;20423;-67
2022/09/26 01:30:58;;;;;;;2.88;2.88;;;12.20;99.90;;;;;;6165258;29;20279;-67
2022/09/26 01:34:09;;;;;;;2.92;2.67;;;12.20;99.90;;;;;;6164824;28;20231;-68
2022/09/26 01:37:22;;;;;;;2.58;2.47;;;12.10;99.90;;;;;;6163224;28;20263;-67
2022/09/26 01:40:33;;;;;;;2.80;2.80;;;12.10;99.90;;;;;;6165033;29;20199;-66
2022/09/26 01:43:44;;;;;;;2.80;2.80;;;12.10;99.90;;;;;;6163407;29;20238;-66
2022/09/26 01:46:52;;;;;;;2.70;2.70;;;12.10;99.90;;;;;;6163905;29;20196;-66
2022/09/26 01:50:02;;;;;;;2.63;2.60;;;12.20;99.90;;;;;;6139635;29;20208;-66
2022/09/26 01:53:10;;;;;;;2.72;2.63;;;12.20;99.90;;;;;;6140535;29;20244;-66
2022/09/26 01:56:20;;;;;;;2.90;2.85;;;12.20;99.90;;;;;;6139551;29;20188;-66
2022/09/26 01:59:27;;;;;;;3.20;3.00;;;12.20;99.90;;;;;;6139228;29;20247;-66
2022/09/26 02:02:40;;;;;;;2.80;2.70;;;12.10;99.90;;;;;;6139028;29;20358;-66
2022/09/26 02:05:48;;;;;;;2.90;2.90;;;12.10;99.90;;;;;;6140617;29;20492;-66
2022/09/26 02:08:56;;;;;;;2.83;2.83;;;12.10;99.90;;;;;;6138977;29;20235;-67
2022/09/26 02:12:05;;;;;;;2.92;2.83;;;12.00;99.90;;;;;;6119499;29;20239;-67
2022/09/26 02:15:15;;;;;;;3.00;2.90;;;12.20;99.90;;;;;;6140886;29;20192;-67
2022/09/26 02:18:24;;;;;;;3.10;3.00;;;12.10;99.90;;;;;;6139209;29;20255;-66
2022/09/26 02:21:28;;;;;;;2.88;2.88;;;12.10;99.90;;;;;;6139587;29;20267;-67
2022/09/26 02:24:32;;;;;;;3.88;3.40;;;12.10;99.90;;;;;;6140160;28;20298;-66
2022/09/26 02:27:37;;;;;;;3.20;3.10;;;12.10;99.90;;;;;;6138939;29;20247;-67
2022/09/26 02:30:45;;;;;;;3.53;3.30;;;12.00;99.90;;;;;;6139457;29;20223;-67
2022/09/26 02:33:53;;;;;;;3.28;3.17;;;12.10;99.90;;;;;;6138977;29;20303;-66
2022/09/26 02:37:01;;;;;;;3.08;3.00;;;12.10;99.90;;;;;;6138450;29;20480;-66
2022/09/26 02:40:11;;;;;;;3.33;3.22;;;12.10;99.90;;;;;;6139491;29;20236;-66
2022/09/26 02:43:44;;;;;;;2.88;2.83;;;12.10;99.90;;;;;;6138514;29;20525;-66
2022/09/26 02:47:25;;;;;;;3.45;3.25;;;12.10;99.90;;;;;;6139357;29;20195;-66
2022/09/26 02:50:51;;;;;;;4.70;2.63;;;12.10;99.90;;;;;;6142106;29;20472;-66
2022/09/26 02:54:16;;;;;;;3.00;2.92;;;12.00;99.90;;;;;;6143336;29;20236;-66
2022/09/26 02:57:32;;;;;;;2.75;2.75;;;12.10;99.90;;;;;;6142957;29;20266;-66
2022/09/26 03:00:53;;;;;;;2.92;2.90;;;12.10;99.90;;;;;;6139133;29;20205;-67
2022/09/26 03:04:03;;;;;;;3.30;3.30;;;12.00;99.90;;;;;;6149202;29;20231;-66
2022/09/26 03:07:15;;;;;;;3.47;3.28;;;12.00;99.90;;;;;;6153354;29;20197;-66
2022/09/26 03:10:20;;;;;;;3.25;3.05;;;12.00;99.90;;;;;;6147750;29;20589;-66
2022/09/26 03:13:25;;;;;;;3.40;3.13;;;12.00;99.90;;;;;;6166352;29;20522;-66
2022/09/26 03:16:34;;;;;;;2.97;2.90;;;12.00;99.90;;;;;;6167176;29;20194;-66
2022/09/26 03:19:45;;;;;;;2.85;2.75;;;11.90;99.90;;;;;;6155520;29;20256;-66
2022/09/26 03:22:51;;;;;;;2.95;2.85;;;11.90;99.90;;;;;;6142454;29;20307;-66
2022/09/26 03:26:01;;;;;;;2.63;2.53;;;11.90;99.90;;;;;;6142816;29;20241;-66
2022/09/26 03:29:08;;;;;;;2.53;2.53;;;11.90;99.90;;;;;;6142235;29;20232;-66
2022/09/26 03:32:12;;;;;;;2.80;2.70;;;11.80;99.90;;;;;;6142059;29;20492;-66
2022/09/26 03:35:17;;;;;;;2.60;2.50;;;11.90;99.90;;;;;;6142522;29;20415;-67
2022/09/26 03:38:23;;;;;;;2.63;2.42;;;11.90;99.90;;;;;;6150623;29;20236;-66
2022/09/26 03:41:38;;;;;;;2.58;2.58;;;11.90;99.90;;;;;;6119121;29;20206;-67
2022/09/26 03:44:56;;;;;;;2.25;2.25;;;11.90;99.90;;;;;;6118774;29;20475;-66
2022/09/26 03:48:05;;;;;;;2.20;2.20;;;11.90;99.90;;;;;;6119420;28;20422;-66
2022/09/26 03:51:12;;;;;;;2.97;2.70;;;11.80;99.90;;;;;;6118436;29;20503;-66
2022/09/26 03:54:18;;;;;;;2.90;2.80;;;11.80;99.90;;;;;;6119629;29;20239;-66
2022/09/26 03:57:24;;;;;;;2.17;2.17;;;11.80;99.90;;;;;;6117960;29;20228;-66
2022/09/26 04:00:47;;;;;;;2.30;2.20;;;11.80;99.90;;;;;;6118483;29;20189;-67
2022/09/26 04:03:51;;;;;;;3.28;2.55;;;11.80;99.90;;;;;;6117889;29;20244;-67
2022/09/26 04:06:55;;;;;;;2.33;2.20;;;11.80;99.90;;;;;;6117687;29;20259;-67
2022/09/26 04:10:04;;;;;;;2.70;2.60;;;11.80;99.90;;;;;;6127152;29;20204;-66
2022/09/26 04:13:14;;;;;;;2.70;2.65;;;11.80;99.90;;;;;;6165067;29;20402;-66
2022/09/26 04:16:38;;;;;;;2.55;2.45;;;11.80;99.90;;;;;;6166927;29;20188;-67
2022/09/26 04:19:56;;;;;;;2.92;2.33;;;11.90;99.90;;;;;;6141610;29;20216;-66
2022/09/26 04:23:00;;;;;;;2.50;2.40;;;11.80;99.90;;;;;;6165605;28;20285;-66
2022/09/26 04:26:07;;;;;;;2.85;2.75;;;11.80;99.90;;;;;;6165588;29;20188;-65
2022/09/26 04:29:12;;;;;;;5.43;2.75;;;11.80;99.90;;;;;;6146693;28;20302;-66
2022/09/26 04:32:49;;;;;;;2.83;2.80;;;11.80;99.90;;;;;;6127496;28;20433;-66
2022/09/26 04:36:20;;;;;;;2.72;2.63;;;11.80;99.90;;;;;;6164988;29;20478;-66
2022/09/26 04:39:25;;;;;;;2.83;2.70;;;11.80;99.90;;;;;;6144688;29;20512;-66
2022/09/26 04:42:35;;;;;;;2.85;2.75;;;11.80;99.90;;;;;;6145247;28;20319;-66
2022/09/26 04:45:42;;;;;;;3.15;2.85;;;11.70;99.90;;;;;;6165042;29;20188;-67
2022/09/26 04:48:47;;;;;;;3.00;2.80;;;11.70;99.90;;;;;;6149208;29;20231;-66
2022/09/26 04:51:54;;;;;;;3.22;2.95;;;11.70;99.90;;;;;;6140707;29;20478;-67
2022/09/26 04:55:00;;;;;;;4.95;2.90;;;11.70;99.90;;;;;;6164533;29;20211;-65
2022/09/26 04:58:05;;;;;;;4.30;3.78;;;11.70;99.90;;;;;;6154601;29;20586;-66
2022/09/26 05:01:12;;;;;;;3.10;2.72;;;11.70;99.90;;;;;;6141166;29;20195;-66
2022/09/26 05:04:39;;;;;;;5.30;3.53;;;11.70;99.90;;;;;;6157536;29;20289;-67
2022/09/26 05:07:44;;;;;;;4.13;3.00;;;11.70;99.90;;;;;;6157227;28;20646;-67
2022/09/26 05:10:53;;;;;;;3.40;3.22;;;11.70;99.90;;;;;;6129118;29;20284;-67
2022/09/26 05:14:01;;;;;;;3.47;3.28;;;11.70;99.90;;;;;;6116354;29;20308;-67
2022/09/26 05:17:06;;;;;;;3.50;3.20;;;11.70;99.90;;;;;;6117702;29;20213;-67
2022/09/26 05:20:11;;;;;;;3.88;3.67;;;11.70;99.90;;;;;;6141794;29;20188;-67
2022/09/26 05:26:52;;;;;;;3.53;3.33;;;11.70;99.90;;;;;;6140487;29;20196;-67
2022/09/26 05:29:58;;;;;;;3.35;3.10;;;11.80;99.90;;;;;;6140033;29;20204;-67
2022/09/26 05:33:04;;;;;;;3.58;3.25;;;11.70;99.90;;;;;;6139697;29;20228;-67
2022/09/26 05:36:10;;;;;;;4.00;3.30;;;11.70;99.90;;;;;;6141240;29;20199;-66
2022/09/26 05:42:36;;;;;;;3.25;3.10;;;11.90;99.90;;;;;;6140836;28;20239;-67
2022/09/26 05:45:43;;;;;;;6.53;3.40;;;11.90;99.90;;;;;;6139866;29;20259;-67
2022/09/26 05:48:49;;;;;;;3.35;3.25;;;11.80;99.90;;;;;;6139392;29;20231;-67
2022/09/26 05:51:57;;;;;;;3.40;3.20;;;11.90;99.90;;;;;;6138925;29;20189;-67
2022/09/26 05:55:01;;;;;;;6.38;3.40;;;11.80;99.90;;;;;;6139425;29;20188;-66
2022/09/26 05:58:24;;;;;;;4.30;3.97;;;11.80;99.90;;;;;;6140181;29;20239;-66
2022/09/26 06:02:01;;;;;;;4.32;4.13;;;11.90;99.90;;;;;;6140188;29;20204;-66
2022/09/26 06:05:25;;;;;;;5.35;4.70;;;11.90;99.90;;;;;;6139514;29;20195;-67
2022/09/26 06:08:33;;;;;;;5.60;5.05;;;12.00;99.90;;;;;;6139980;29;20232;-67
2022/09/26 06:11:50;;;;;;;5.63;5.22;;;12.10;99.90;;;;;;6157878;29;20235;-66
2022/09/26 06:14:54;;;;;;;5.57;5.07;;;12.10;99.90;;;;;;6162600;29;20282;-66
2022/09/26 06:18:03;;;;;;;6.18;5.03;;;12.20;99.90;;;;;;6162431;29;20251;-66
2022/09/26 06:21:12;;;;;;;5.95;5.45;;;12.20;99.90;;;;;;6162847;29;20506;-65
2022/09/26 06:24:19;;;;;;;5.97;5.47;;;12.30;99.90;;;;;;6166154;28;20231;-66
2022/09/26 06:27:27;;;;;;;7.00;5.68;;;12.30;99.90;;;;;;6167571;28;20227;-66
2022/09/26 06:30:32;;;;;;;6.22;5.70;;;12.30;99.90;;;;;;6168035;29;20266;-66
2022/09/26 06:34:00;;;;;;;6.53;5.97;;;12.30;99.90;;;;;;6167377;29;20306;-65
2022/09/26 06:37:22;;;;;;;7.07;5.60;;;12.30;99.90;;;;;;6167928;28;20227;-66
2022/09/26 06:40:27;;;;;;;5.97;5.30;;;12.30;99.90;;;;;;6167404;29;20424;-66
2022/09/26 06:43:32;;;;;;;5.90;5.40;;;12.30;99.90;;;;;;6166799;29;20537;-66
2022/09/26 06:47:04;;;;;;;7.63;4.90;;;12.30;99.90;;;;;;6167083;28;20187;-66
2022/09/26 06:50:15;;;;;;;4.70;4.50;;;12.20;99.90;;;;;;6167612;29;20231;-66
2022/09/26 06:53:25;;;;;;;4.35;4.03;;;12.20;99.90;;;;;;6166806;29;20298;-66
2022/09/26 06:56:30;;;;;;;3.83;3.30;;;12.20;99.90;;;;;;6167528;29;20187;-67
2022/09/26 06:59:34;;;;;;;3.20;3.10;;;12.20;99.90;;;;;;6166948;29;20231;-67
2022/09/26 07:02:51;;;;;;;2.97;2.97;;;12.10;99.90;;;;;;6166644;28;20549;-67
2022/09/26 07:06:04;;;;;;;3.30;3.20;;;12.00;99.90;;;;;;6167319;29;20255;-67
2022/09/26 07:09:10;;;;;;;3.28;3.28;;;12.10;99.90;;;;;;6166465;29;20475;-67
2022/09/26 07:12:22;;;;;;;4.10;3.83;;;12.10;99.90;;;;;;6135561;29;20252;-67
2022/09/26 07:15:29;;;;;;;4.10;3.75;;;12.00;99.90;;;;;;6120351;29;20277;-67
2022/09/26 07:18:35;;;;;;;4.20;4.00;;;12.20;99.90;;;;;;6118842;29;20424;-67
2022/09/26 07:21:59;;;;;;;4.85;3.95;;;12.20;99.90;;;;;;6120066;29;20194;-66
2022/09/26 07:25:11;;;;;;;4.53;4.22;;;12.20;99.90;;;;;;6119509;29;20199;-67
2022/09/26 07:28:16;;;;;;;5.18;4.88;;;12.20;99.90;;;;;;6134243;29;20304;-66
2022/09/26 07:31:25;;;;;;;5.85;4.35;;;12.30;99.90;;;;;;6119190;29;20232;-66
2022/09/26 07:34:42;;;;;;;5.03;4.55;;;12.30;99.90;;;;;;6118962;29;20287;-67
2022/09/26 07:37:53;;;;;;;4.78;4.47;;;12.30;99.90;;;;;;6118260;29;20448;-67
2022/09/26 07:40:59;;;;;;;4.32;4.20;;;12.40;99.90;;;;;;6118601;29;20472;-67
2022/09/26 07:44:05;;;;;;;4.82;4.30;;;12.40;99.90;;;;;;6118443;29;20237;-67
2022/09/26 07:51:26;;;;;;;4.60;4.30;;;12.30;99.90;;;;;;6098203;29;20513;-65
2022/09/26 07:54:34;;;;;;;5.22;4.75;;;12.30;99.90;;;;;;6118141;29;20404;-66
2022/09/26 07:58:13;;;;;;;4.95;4.50;;;12.30;99.90;;;;;;6106911;29;20245;-67
2022/09/26 08:01:32;;;;;;;4.85;4.30;;;12.40;99.90;;;;;;6118206;29;20189;-66
2022/09/26 08:04:36;;;;;;;4.40;4.20;;;12.40;99.90;;;;;;6119111;29;20461;-66
2022/09/26 08:07:41;;;;;;;4.47;4.10;;;12.50;99.90;;;;;;6133912;29;20300;-66
2022/09/26 08:10:51;;;;;;;4.95;4.10;;;12.50;99.90;;;;;;6139365;29;20266;-66
2022/09/26 08:14:14;;;;;;;4.57;4.28;;;12.50;99.90;;;;;;6166065;28;20534;-66
2022/09/26 08:17:32;;;;;;;3.85;3.75;;;12.60;99.90;;;;;;6165307;28;20312;-66
2022/09/26 08:20:36;;;;;;;4.57;4.07;;;12.70;99.90;;;;;;6165557;29;20187;-65
2022/09/26 08:23:41;;;;;;;4.78;4.35;;;12.70;99.90;;;;;;6165986;28;20570;-67
2022/09/26 08:27:09;;;;;;;3.58;3.38;;;12.70;99.90;;;;;;6166004;28;20203;-67
2022/09/26 08:30:18;;;;;;;4.47;4.15;;;12.70;99.90;;;;;;6164991;29;20188;-67
2022/09/26 08:33:23;;;;;;;4.00;3.80;;;12.70;99.90;;;;;;6164575;29;20257;-66
2022/09/26 08:36:28;;;;;;;3.90;3.70;;;12.70;99.90;;;;;;6164911;29;20358;-66
2022/09/26 08:39:35;;;;;;;4.32;3.90;;;12.70;99.90;;;;;;6165909;28;20525;-67
2022/09/26 08:43:09;;;;;;;3.88;3.70;;;12.70;99.90;;;;;;6165488;28;20243;-66
2022/09/26 08:46:49;;;;;;;3.83;3.60;;;12.80;99.90;;;;;;6157667;28;20211;-67
2022/09/26 08:50:20;;;;;;;3.72;3.42;;;12.90;99.90;;;;;;6132056;29;20243;-68
2022/09/26 08:53:29;;;;;;;4.00;3.80;;;12.90;99.90;;;;;;6140368;29;20515;-67
2022/09/26 08:56:56;;;;;;;4.03;3.67;;;12.90;99.90;;;;;;6140623;29;20197;-66
2022/09/26 09:00:12;;;;;;;3.40;3.30;;;13.00;99.90;;;;;;6156224;29;20475;-66
2022/09/26 09:03:26;;;;;;;5.82;3.90;;;13.00;99.90;;;;;;6140104;29;20446;-67
2022/09/26 09:06:32;;;;;;;3.92;3.58;;;13.10;99.90;;;;;;6140405;29;20399;-67
2022/09/26 09:09:36;;;;;;;3.13;3.03;;;13.20;99.90;;;;;;6138887;29;20239;-67
2022/09/26 09:13:26;;;;;;;3.03;2.92;;;13.30;99.90;;;;;;6119735;29;20305;-66
2022/09/26 09:17:16;;;;;;;3.20;3.10;;;13.30;99.90;;;;;;6139650;28;20223;-67
2022/09/26 09:20:57;;;;;;;3.33;3.10;;;13.30;99.90;;;;;;6128770;29;20248;-67
2022/09/26 09:24:38;;;;;;;3.28;2.83;;;13.30;99.90;;;;;;6140059;29;20236;-67
2022/09/26 09:27:58;;;;;;;2.95;2.75;;;13.30;99.90;;;;;;6139913;29;20231;-67
2022/09/26 09:31:13;;;;;;;2.90;2.80;;;13.30;99.90;;;;;;6139778;29;20516;-67
2022/09/26 09:34:42;;;;;;;3.35;3.25;;;13.30;99.90;;;;;;6139540;29;20569;-66
2022/09/26 09:38:16;;;;;;;3.10;3.00;;;13.40;99.90;;;;;;6139112;29;20422;-66
2022/09/26 09:41:47;;;;;;;3.97;2.95;;;13.40;99.90;;;;;;6133496;29;20204;-66
2022/09/26 09:44:58;;;;;;;3.55;2.97;;;13.40;99.90;;;;;;6139475;29;20612;-67
2022/09/26 09:48:02;;;;;;;5.28;3.20;;;13.40;99.90;;;;;;6138950;29;20254;-66
2022/09/26 09:51:20;;;;;;;3.80;3.10;;;13.50;99.90;;;;;;6139582;29;20479;-66
2022/09/26 09:54:39;;;;;;;3.65;3.33;;;13.50;99.90;;;;;;6139426;29;20236;-66
2022/09/26 09:58:15;;;;;;;5.18;3.40;;;13.60;99.90;;;;;;6138865;29;20228;-65
2022/09/26 10:01:27;;;;;;;3.97;3.20;;;13.70;99.90;;;;;;6139988;29;20268;-68
2022/09/26 10:04:39;;;;;;;2.95;2.70;;;13.70;99.90;;;;;;6139363;29;20473;-67
2022/09/26 10:07:45;;;;;;;3.55;3.35;;;13.70;99.90;;;;;;6138887;29;20450;-67
2022/09/26 10:11:38;;;;;;;14.63;5.90;;;13.70;99.90;;;;;;6156115;29;20242;-66
2022/09/26 10:15:05;;;;;;;4.90;3.63;;;13.80;99.90;;;;;;6140419;29;20290;-66
2022/09/26 10:19:02;;;;;;;4.22;3.83;;;13.70;99.90;;;;;;6154994;28;20394;-66
2022/09/26 10:22:24;;;;;;;3.45;3.28;;;13.70;99.90;;;;;;6160682;28;20296;-66
2022/09/26 10:25:30;;;;;;;3.38;3.25;;;13.70;99.90;;;;;;6139403;29;20204;-66
2022/09/26 10:28:43;;;;;;;3.40;3.30;;;13.70;99.90;;;;;;6138827;29;20231;-66
2022/09/26 10:31:55;;;;;;;4.28;3.92;;;13.80;99.90;;;;;;6139437;29;20216;-66
2022/09/26 10:35:17;;;;;;;21.77;7.15;;;13.90;99.90;;;;;;6138944;29;20251;-66
2022/09/26 10:38:26;;;;;;;5.32;4.93;;;13.90;99.90;;;;;;6150295;29;20549;-67
2022/09/26 10:41:49;;;;;;;5.57;4.68;;;13.80;99.90;;;;;;6163041;29;20195;-67
2022/09/26 10:44:56;;;;;;;4.68;4.38;;;13.70;99.90;;;;;;6138973;29;20279;-66
2022/09/26 10:48:20;;;;;;;5.32;4.60;;;13.70;99.90;;;;;;6151218;28;20346;-66
2022/09/26 10:51:47;;;;;;;4.43;4.13;;;13.60;99.90;;;;;;6163992;29;20212;-66
2022/09/26 10:54:58;;;;;;;5.00;4.78;;;13.70;99.90;;;;;;6162242;29;20584;-66
2022/09/26 10:58:07;;;;;;;4.70;4.50;;;13.80;99.90;;;;;;6154659;28;20238;-66
2022/09/26 11:01:22;;;;;;;3.88;3.67;;;13.80;99.90;;;;;;6139124;29;20188;-67
2022/09/26 11:08:13;;;;;;;3.42;3.33;;;13.80;99.90;;;;;;6152717;28;20228;-67
2022/09/26 11:11:42;;;;;;;3.67;3.47;;;13.80;99.90;;;;;;6107961;29;20527;-66
2022/09/26 11:14:51;;;;;;;3.60;3.50;;;13.80;99.90;;;;;;6141779;29;20290;-66
2022/09/26 11:17:57;;;;;;;4.20;4.10;;;13.80;99.90;;;;;;6142934;29;20239;-67
2022/09/26 11:21:10;;;;;;;3.38;3.28;;;13.80;99.90;;;;;;6143926;29;20472;-67
2022/09/26 11:24:44;;;;;;;3.28;3.10;;;13.70;99.90;;;;;;6122040;29;20232;-67
2022/09/26 11:27:53;;;;;;;3.30;3.13;;;13.70;99.90;;;;;;6126290;29;20238;-67
2022/09/26 11:31:22;;;;;;;3.45;3.20;;;13.70;99.90;;;;;;6142650;29;20510;-66
2022/09/26 11:34:40;;;;;;;3.40;3.10;;;13.60;99.90;;;;;;6142388;29;20231;-66
2022/09/26 11:38:08;;;;;;;3.42;3.33;;;13.70;99.90;;;;;;6142625;28;20235;-68
2022/09/26 11:41:44;;;;;;;2.90;2.85;;;13.80;99.90;;;;;;6142652;29;20188;-66
2022/09/26 11:44:57;;;;;;;3.78;2.88;;;13.80;99.90;;;;;;6142337;29;20238;-66
2022/09/26 11:49:02;;;;;;;3.95;3.70;;;13.80;99.90;;;;;;6143189;29;20527;-66
2022/09/26 11:52:38;;;;;;;3.20;3.10;;;13.80;99.90;;;;;;6143383;29;20270;-66
2022/09/26 11:56:03;;;;;;;3.63;3.30;;;13.80;99.90;;;;;;6143102;29;20240;-66
2022/09/26 11:59:47;;;;;;;3.80;3.30;;;13.70;99.90;;;;;;6142987;29;20228;-66
2022/09/26 12:03:46;;;;;;;3.40;3.30;;;13.80;99.90;;;;;;6122255;28;20366;-66
2022/09/26 12:06:55;;;;;;;3.42;3.33;;;13.80;99.90;;;;;;6141744;29;20401;-66
2022/09/26 12:10:19;;;;;;;4.20;3.90;;;13.90;99.90;;;;;;6123400;29;20279;-67
2022/09/26 12:13:33;;;;;;;3.80;3.67;;;13.80;99.90;;;;;;6142721;28;20236;-67
2022/09/26 12:16:46;;;;;;;4.03;3.67;;;13.90;99.90;;;;;;6143026;29;20222;-67
2022/09/26 12:19:57;;;;;;;3.72;3.40;;;14.00;99.90;;;;;;6164652;29;20298;-66
2022/09/26 12:23:10;;;;;;;3.50;3.40;;;13.90;99.90;;;;;;6157445;28;20254;-66
2022/09/26 12:26:20;;;;;;;3.25;3.15;;;14.00;99.90;;;;;;6142829;29;20293;-66
2022/09/26 12:29:36;;;;;;;3.65;3.35;;;14.00;99.90;;;;;;6161893;28;20312;-67
2022/09/26 12:33:03;;;;;;;3.58;3.28;;;14.00;99.90;;;;;;6160112;28;20521;-67
2022/09/26 12:36:17;;;;;;;3.15;2.92;;;14.00;99.90;;;;;;6142216;29;20531;-66
2022/09/26 12:39:44;;;;;;;2.88;2.78;;;14.00;99.90;;;;;;6161665;28;20231;-67
2022/09/26 12:43:22;;;;;;;2.80;2.58;;;14.00;99.90;;;;;;6159088;28;20251;-66
2022/09/26 12:47:03;;;;;;;2.90;2.80;;;14.00;99.90;;;;;;6142430;29;20192;-66
2022/09/26 12:50:22;;;;;;;2.53;2.28;;;14.00;99.90;;;;;;6122166;29;20295;-66
2022/09/26 12:53:58;;;;;;;2.83;2.63;;;13.90;99.90;;;;;;6141561;29;20562;-66
2022/09/26 12:57:12;;;;;;;3.35;2.47;;;14.00;99.90;;;;;;6141569;29;20223;-66
2022/09/26 13:00:20;;;;;;;2.38;2.30;;;14.10;99.90;;;;;;6142113;29;20216;-66
2022/09/26 13:03:54;;;;;;;3.22;2.63;;;14.10;99.90;;;;;;6141590;29;20236;-66
2022/09/26 13:07:14;;;;;;;2.15;2.05;;;14.00;99.90;;;;;;6138081;29;20215;-66
2022/09/26 13:10:33;;;;;;;2.03;2.00;;;14.00;99.90;;;;;;6134484;29;20233;-66
2022/09/26 13:14:09;;;;;;;2.60;2.47;;;14.00;99.90;;;;;;6131077;29;20232;-66
2022/09/26 13:17:17;;;;;;;2.28;2.17;;;14.10;99.90;;;;;;6141123;28;20291;-66
2022/09/26 13:20:27;;;;;;;2.08;1.98;;;14.20;99.90;;;;;;6141723;29;20195;-66
2022/09/26 13:23:35;;;;;;;3.70;2.00;;;14.20;99.90;;;;;;6141090;29;20339;-66
2022/09/26 13:26:44;;;;;;;2.30;2.13;;;14.20;99.90;;;;;;6141148;29;20264;-65
2022/09/26 13:29:57;;;;;;;4.45;2.20;;;14.20;99.90;;;;;;6140746;29;20345;-65
2022/09/26 13:33:05;;;;;;;2.25;2.15;;;14.20;99.90;;;;;;6140290;29;20295;-66
2022/09/26 13:36:12;;;;;;;2.10;2.00;;;14.20;99.90;;;;;;6141256;29;20212;-66
2022/09/26 13:39:24;;;;;;;2.50;2.38;;;14.30;99.90;;;;;;6140366;29;20231;-66
2022/09/26 13:42:36;;;;;;;2.80;2.40;;;14.30;99.90;;;;;;6140804;29;20295;-66
2022/09/26 13:45:57;;;;;;;2.20;2.10;;;14.40;99.90;;;;;;6141060;29;20196;-66
2022/09/26 13:49:16;;;;;;;3.63;2.58;;;14.40;99.90;;;;;;6140523;29;20231;-66
2022/09/26 13:52:51;;;;;;;2.30;2.00;;;14.40;99.90;;;;;;6140766;29;20236;-67
2022/09/26 13:56:48;;;;;;;2.00;1.90;;;14.50;99.90;;;;;;6136944;28;20235;-66
2022/09/26 13:59:53;;;;;;;4.22;2.17;;;14.50;99.90;;;;;;6140217;29;20299;-66
2022/09/26 14:03:46;;;;;;;1.85;1.85;;;14.50;99.90;;;;;;6140409;29;20235;-66
2022/09/26 14:10:38;;;;;;;1.95;1.95;;;14.60;99.90;;;;;;6075962;29;20253;-66
2022/09/26 14:13:43;;;;;;;2.22;2.00;;;14.50;99.90;;;;;;6090541;29;20233;-66
2022/09/26 14:16:48;;;;;;;2.35;2.25;;;14.60;99.90;;;;;;6091116;29;20456;-66
2022/09/26 14:19:55;;;;;;;2.28;2.17;;;14.50;99.90;;;;;;6090502;29;20233;-68
2022/09/26 14:23:02;;;;;;;2.72;2.53;;;14.50;99.90;;;;;;6090468;29;20233;-66
2022/09/26 14:26:09;;;;;;;2.45;2.45;;;14.60;99.90;;;;;;6090893;29;20197;-66
2022/09/26 14:29:30;;;;;;;3.53;2.58;;;14.50;99.90;;;;;;6090480;29;20236;-66
2022/09/26 14:32:38;;;;;;;2.60;2.40;;;14.50;99.90;;;;;;6090397;29;20233;-65
2022/09/26 14:35:43;;;;;;;2.83;2.20;;;14.40;99.90;;;;;;6090761;29;20190;-66
2022/09/26 14:38:49;;;;;;;2.22;1.73;;;14.40;99.90;;;;;;6159356;28;20231;-66
2022/09/26 14:41:54;;;;;;;2.05;2.05;;;14.40;99.90;;;;;;6164010;28;20198;-67
2022/09/26 14:45:00;;;;;;;2.38;2.20;;;14.30;99.90;;;;;;6142836;29;20439;-67
2022/09/26 14:48:08;;;;;;;2.35;2.20;;;14.40;99.90;;;;;;6143536;29;20275;-65
2022/09/26 14:51:28;;;;;;;2.25;2.15;;;14.30;99.90;;;;;;6144517;29;20433;-66
2022/09/26 14:54:39;;;;;;;1.75;1.75;;;14.30;99.90;;;;;;6144343;29;20278;-66
2022/09/26 14:57:43;;;;;;;2.35;2.25;;;14.30;99.90;;;;;;6143186;29;20357;-65
2022/09/26 15:00:49;;;;;;;2.50;2.40;;;14.30;99.90;;;;;;6144780;29;20195;-66
2022/09/26 15:04:00;;;;;;;2.30;2.20;;;14.30;99.90;;;;;;6144232;29;20242;-66
2022/09/26 15:07:16;;;;;;;1.80;1.80;;;14.40;99.90;;;;;;6143736;29;20483;-66
2022/09/26 15:10:38;;;;;;;3.28;1.95;;;14.40;99.90;;;;;;6137318;29;20229;-66
2022/09/26 15:13:45;;;;;;;3.20;1.92;;;14.40;99.90;;;;;;6134420;29;20228;-66
2022/09/26 15:16:52;;;;;;;2.22;2.22;;;14.30;99.90;;;;;;6144294;29;20212;-66
2022/09/26 15:19:59;;;;;;;3.70;2.28;;;14.30;99.90;;;;;;6143963;29;20223;-67
2022/09/26 15:23:18;;;;;;;2.10;2.00;;;14.30;99.90;;;;;;6143597;28;20293;-68
2022/09/26 15:26:26;;;;;;;2.13;2.13;;;14.30;99.90;;;;;;6143862;29;20192;-67
2022/09/26 15:29:30;;;;;;;2.25;2.15;;;14.20;99.90;;;;;;6143374;29;20546;-67
2022/09/26 15:32:35;;;;;;;1.98;1.98;;;14.20;99.90;;;;;;6143540;29;20251;-67
2022/09/26 15:35:40;;;;;;;3.80;2.20;;;14.10;99.90;;;;;;6143727;29;20196;-66
2022/09/26 15:38:46;;;;;;;2.20;2.10;;;14.10;99.90;;;;;;6143309;29;20302;-67
2022/09/26 15:45:25;;;;;;;3.63;2.35;;;14.00;99.90;;;;;;6119921;29;20209;-68
2022/09/26 15:48:32;;;;;;;3.58;2.13;;;14.00;99.90;;;;;;6119904;29;20232;-67
2022/09/26 15:51:38;;;;;;;3.30;2.55;;;14.00;99.90;;;;;;6119981;29;20193;-67
2022/09/26 15:54:43;;;;;;;4.95;2.10;;;14.00;99.90;;;;;;6141213;29;20291;-68
2022/09/26 15:57:51;;;;;;;3.38;2.03;;;13.90;99.90;;;;;;6142571;28;20247;-66
2022/09/26 16:00:58;;;;;;;5.50;2.20;;;13.90;99.90;;;;;;6143501;29;20195;-66
2022/09/26 16:04:05;;;;;;;3.35;2.17;;;13.90;99.90;;;;;;6142601;29;20287;-66
2022/09/26 16:07:19;;;;;;;2.35;2.20;;;13.80;99.90;;;;;;6142612;29;20193;-66
2022/09/26 16:10:30;;;;;;;2.75;2.60;;;13.80;99.90;;;;;;6150351;29;20238;-67
2022/09/26 16:13:38;;;;;;;4.55;2.42;;;13.80;99.90;;;;;;6165952;29;20238;-66
2022/09/26 16:16:43;;;;;;;5.10;2.50;;;13.70;99.90;;;;;;6166427;29;20456;-67
2022/09/26 16:19:50;;;;;;;2.42;2.15;;;13.70;99.90;;;;;;6166133;28;20281;-66
2022/09/26 16:22:55;;;;;;;2.17;2.08;;;13.70;99.90;;;;;;6165886;28;20565;-67
2022/09/26 16:26:28;;;;;;;1.70;1.70;;;13.70;99.90;;;;;;6166702;29;20187;-66
2022/09/26 16:29:35;;;;;;;2.53;1.70;;;13.70;99.90;;;;;;6165866;28;20235;-68
2022/09/26 16:32:39;;;;;;;3.00;1.80;;;13.60;99.90;;;;;;6166000;28;20273;-68
2022/09/26 16:35:46;;;;;;;1.90;1.80;;;13.60;99.90;;;;;;6166499;28;20216;-68
2022/09/26 16:38:57;;;;;;;2.15;2.00;;;13.60;99.90;;;;;;6165530;28;20538;-67
2022/09/26 16:42:04;;;;;;;2.63;1.80;;;13.60;99.90;;;;;;6165645;28;20255;-66
2022/09/26 16:45:14;;;;;;;1.77;1.70;;;13.60;99.90;;;;;;6166191;28;20188;-67
2022/09/26 16:48:44;;;;;;;2.08;2.00;;;13.50;99.90;;;;;;6165327;28;20263;-68
2022/09/26 16:52:11;;;;;;;1.98;1.98;;;13.50;99.90;;;;;;6157270;28;20266;-68
2022/09/26 16:55:16;;;;;;;1.92;1.90;;;13.50;99.90;;;;;;6165774;28;20398;-68
2022/09/26 16:58:21;;;;;;;1.63;1.63;;;13.40;99.90;;;;;;6165340;28;20302;-67
2022/09/26 17:04:52;;;;;;;1.92;1.83;;;13.50;99.90;;;;;;6141957;28;20295;-68
2022/09/26 17:07:56;;;;;;;3.88;1.90;;;13.50;99.90;;;;;;6148186;28;20541;-67
2022/09/26 17:11:03;;;;;;;2.05;2.05;;;13.50;99.90;;;;;;6152606;29;20237;-67
2022/09/26 17:14:15;;;;;;;2.33;2.20;;;13.50;99.90;;;;;;6141012;29;20235;-68
2022/09/26 17:17:24;;;;;;;2.20;2.17;;;13.40;99.90;;;;;;6141044;29;20247;-68